Time;durP1;ratioP1;P1;durP2;ratioP2;P2;SDS_P1;SDS_P2;PMS_P1;PMS_P2;Temp;Humidity;BMP_temperature;BMP_pressure;BME280_temperature;BME280_humidity;BME280_pressure;Samples;Min_cycle;Max_cycle;Signal;HPM_P1;HPM_P2
2021/03/31 00:00:30;;;;;;;15.32;7.50;;;;;15.60;102363.00;;;;5089022;28;20205;-76
2021/03/31 00:02:59;;;;;;;10.85;5.43;;;;;15.70;102362.00;;;;5074901;28;20228;-77
2021/03/31 00:05:26;;;;;;;11.70;6.75;;;;;15.60;102350.00;;;;5089353;28;20210;-77
2021/03/31 00:07:53;;;;;;;14.18;7.45;;;;;15.60;102356.00;;;;5088656;28;20571;-77
2021/03/31 00:10:24;;;;;;;13.77;7.60;;;;;15.60;102351.00;;;;5084880;28;20621;-76
2021/03/31 00:12:52;;;;;;;11.23;6.68;;;;;15.60;102354.00;;;;5074201;28;20195;-77
2021/03/31 00:15:19;;;;;;;13.63;7.93;;;;;15.50;102349.00;;;;5082058;28;20194;-77
2021/03/31 00:17:46;;;;;;;15.43;7.55;;;;;15.50;102354.00;;;;5089175;28;20329;-76
2021/03/31 00:20:15;;;;;;;14.75;8.32;;;;;15.50;102347.00;;;;5085845;28;20194;-76
2021/03/31 00:22:43;;;;;;;15.48;7.90;;;;;15.50;102340.00;;;;5081960;28;20205;-76
2021/03/31 00:25:11;;;;;;;13.30;7.45;;;;;15.50;102340.00;;;;5088869;28;20198;-76
2021/03/31 00:27:38;;;;;;;17.13;7.30;;;;;15.40;102338.00;;;;5089712;28;20339;-77
2021/03/31 00:30:08;;;;;;;13.40;7.32;;;;;15.40;102330.00;;;;5088894;28;20637;-76
2021/03/31 00:32:35;;;;;;;11.43;6.80;;;;;15.40;102328.00;;;;5088790;28;20194;-76
2021/03/31 00:35:02;;;;;;;12.32;7.25;;;;;15.40;102329.00;;;;5076809;28;20198;-76
2021/03/31 00:37:30;;;;;;;11.20;6.63;;;;;15.40;102325.00;;;;5077292;28;20670;-76
2021/03/31 00:39:57;;;;;;;15.15;7.85;;;;;15.40;102324.00;;;;5088240;28;20194;-77
2021/03/31 00:42:23;;;;;;;12.43;6.50;;;;;15.30;102320.00;;;;5088817;28;20243;-76
2021/03/31 00:44:50;;;;;;;15.60;7.60;;;;;15.30;102322.00;;;;5069335;28;20217;-76
2021/03/31 00:47:18;;;;;;;11.25;6.68;;;;;15.30;102313.00;;;;5084590;28;20244;-76
2021/03/31 00:49:45;;;;;;;14.18;6.85;;;;;15.20;102309.00;;;;5084387;28;20214;-77
2021/03/31 00:52:12;;;;;;;12.95;7.15;;;;;15.20;102301.00;;;;5072009;28;20187;-77
2021/03/31 00:54:39;;;;;;;11.93;6.78;;;;;15.20;102296.00;;;;5087775;28;20219;-76
2021/03/31 00:57:06;;;;;;;13.63;7.95;;;;;15.20;102300.00;;;;5088215;28;20263;-76
2021/03/31 00:59:33;;;;;;;11.88;6.70;;;;;15.20;102296.00;;;;5087946;28;20249;-76
2021/03/31 01:02:00;;;;;;;16.00;8.00;;;;;15.10;102290.00;;;;5087250;28;20190;-77
2021/03/31 01:04:28;;;;;;;13.38;7.28;;;;;15.10;102293.00;;;;5089005;28;20217;-76
2021/03/31 01:06:55;;;;;;;12.32;6.78;;;;;15.10;102285.00;;;;5071729;28;20217;-76
2021/03/31 01:09:21;;;;;;;12.43;6.78;;;;;15.10;102293.00;;;;5088181;28;20734;-76
2021/03/31 01:11:58;;;;;;;11.57;7.28;;;;;15.00;102286.00;;;;5088358;28;20205;-76
2021/03/31 01:14:34;;;;;;;14.63;7.20;;;;;15.00;102285.00;;;;5087831;28;20608;-76
2021/03/31 01:17:08;;;;;;;13.35;6.93;;;;;15.00;102283.00;;;;5087633;28;20725;-77
2021/03/31 01:20:15;;;;;;;14.18;7.45;;;;;14.90;102274.00;;;;5081965;28;20663;-76
2021/03/31 01:23:17;;;;;;;13.15;7.32;;;;;14.80;102266.00;;;;5084443;28;20191;-76
2021/03/31 01:25:48;;;;;;;16.10;5.75;;;;;14.90;102272.00;;;;5084142;28;20186;-77
2021/03/31 01:28:44;;;;;;;13.15;6.72;;;;;14.80;102261.00;;;;5086159;28;20225;-76
2021/03/31 01:31:25;;;;;;;12.50;6.85;;;;;14.80;102267.00;;;;5086304;28;20214;-76
2021/03/31 01:34:13;;;;;;;10.77;5.80;;;;;14.80;102260.00;;;;5087153;28;20576;-76
2021/03/31 01:36:43;;;;;;;16.08;7.18;;;;;14.80;102257.00;;;;5056134;28;20638;-76
2021/03/31 01:39:11;;;;;;;15.05;7.25;;;;;14.80;102253.00;;;;5088083;28;20263;-76
2021/03/31 01:41:40;;;;;;;12.30;6.72;;;;;14.80;102245.00;;;;5087808;28;20202;-76
2021/03/31 01:44:11;;;;;;;13.40;7.15;;;;;14.70;102249.00;;;;5072884;28;20211;-77
2021/03/31 01:46:40;;;;;;;14.65;6.82;;;;;14.70;102244.00;;;;5068598;28;20236;-76
2021/03/31 01:49:08;;;;;;;11.70;6.47;;;;;14.70;102246.00;;;;5086391;28;20226;-76
2021/03/31 01:51:37;;;;;;;11.05;7.03;;;;;14.70;102243.00;;;;5083254;28;20198;-76
2021/03/31 01:54:06;;;;;;;12.80;7.03;;;;;14.70;102234.00;;;;5086806;28;20679;-76
2021/03/31 01:56:34;;;;;;;12.85;6.85;;;;;14.70;102233.00;;;;5087824;28;20194;-76
2021/03/31 01:59:02;;;;;;;14.48;7.53;;;;;14.60;102227.00;;;;5087266;28;20583;-76
2021/03/31 02:01:29;;;;;;;12.68;7.70;;;;;14.60;102240.00;;;;5087289;28;20198;-77
2021/03/31 02:03:59;;;;;;;11.93;7.28;;;;;14.60;102231.00;;;;5086405;28;20202;-76
2021/03/31 02:06:29;;;;;;;12.85;6.60;;;;;14.60;102230.00;;;;5087915;28;21081;-76
2021/03/31 02:08:57;;;;;;;11.10;6.82;;;;;14.60;102228.00;;;;5087432;28;20224;-76
2021/03/31 02:11:27;;;;;;;12.02;6.50;;;;;14.50;102236.00;;;;5088170;28;20209;-76
2021/03/31 02:13:54;;;;;;;13.35;7.13;;;;;14.50;102231.00;;;;5075772;28;20256;-76
2021/03/31 02:16:22;;;;;;;12.35;6.55;;;;;14.50;102226.00;;;;5067969;28;20203;-76
2021/03/31 02:18:50;;;;;;;14.07;7.75;;;;;14.50;102230.00;;;;5080487;28;20195;-76
2021/03/31 02:21:18;;;;;;;14.10;7.47;;;;;14.40;102221.00;;;;5074656;28;20648;-76
2021/03/31 02:23:45;;;;;;;11.13;7.05;;;;;14.40;102219.00;;;;5087589;28;20198;-76
2021/03/31 02:26:12;;;;;;;13.73;6.70;;;;;14.40;102216.00;;;;5086357;28;20202;-75
2021/03/31 02:28:40;;;;;;;11.95;6.90;;;;;14.40;102211.00;;;;5086937;28;20214;-76
2021/03/31 02:31:06;;;;;;;10.82;6.43;;;;;14.40;102204.00;;;;5090365;28;20238;-76
2021/03/31 02:33:35;;;;;;;13.80;7.13;;;;;14.40;102208.00;;;;5091132;28;20190;-76
2021/03/31 02:36:02;;;;;;;13.25;6.85;;;;;14.30;102205.00;;;;5090619;28;20235;-77
2021/03/31 02:38:31;;;;;;;11.80;6.35;;;;;14.30;102203.00;;;;5089885;28;20202;-76
2021/03/31 02:40:59;;;;;;;12.80;6.25;;;;;14.30;102201.00;;;;5075111;28;20202;-77
2021/03/31 02:43:27;;;;;;;11.57;6.18;;;;;14.30;102195.00;;;;5089649;28;20252;-77
2021/03/31 02:45:58;;;;;;;10.02;5.75;;;;;14.20;102194.00;;;;5085871;28;20229;-76
2021/03/31 02:48:26;;;;;;;11.88;6.53;;;;;14.20;102186.00;;;;5083227;28;20268;-76
2021/03/31 02:50:57;;;;;;;12.18;6.30;;;;;14.20;102186.00;;;;5070560;28;20672;-76
2021/03/31 02:53:25;;;;;;;10.73;6.35;;;;;14.20;102181.00;;;;5087459;28;20550;-76
2021/03/31 02:55:53;;;;;;;13.70;6.97;;;;;14.20;102189.00;;;;5090364;28;20210;-76
2021/03/31 02:58:19;;;;;;;13.23;7.03;;;;;14.10;102185.00;;;;5091080;28;20255;-76
2021/03/31 03:00:46;;;;;;;13.70;6.55;;;;;14.10;102191.00;;;;5091155;28;20869;-76
2021/03/31 03:03:14;;;;;;;12.02;6.88;;;;;14.10;102181.00;;;;5088473;28;20199;-76
2021/03/31 03:05:41;;;;;;;11.90;6.63;;;;;14.10;102177.00;;;;5085246;28;20206;-76
2021/03/31 03:08:08;;;;;;;11.38;6.47;;;;;14.10;102181.00;;;;5077912;28;20209;-76
2021/03/31 03:10:36;;;;;;;13.63;6.85;;;;;14.00;102175.00;;;;5077525;28;20219;-76
2021/03/31 03:13:03;;;;;;;10.23;6.55;;;;;14.00;102177.00;;;;5082737;28;20198;-76
2021/03/31 03:15:31;;;;;;;11.77;5.95;;;;;14.00;102179.00;;;;5091127;28;20229;-76
2021/03/31 03:17:58;;;;;;;9.25;5.25;;;;;14.00;102180.00;;;;5088560;28;20194;-76
2021/03/31 03:20:26;;;;;;;12.32;7.00;;;;;14.00;102179.00;;;;5090662;28;20221;-76
2021/03/31 03:22:56;;;;;;;10.35;5.97;;;;;13.90;102181.00;;;;5088136;28;20203;-76
2021/03/31 03:25:25;;;;;;;10.35;6.28;;;;;13.90;102178.00;;;;5090638;28;20213;-76
2021/03/31 03:27:52;;;;;;;12.63;6.78;;;;;13.90;102177.00;;;;5089576;28;20243;-76
2021/03/31 03:30:21;;;;;;;10.18;5.95;;;;;13.90;102174.00;;;;5090119;28;20761;-76
2021/03/31 03:32:50;;;;;;;11.65;6.72;;;;;13.90;102172.00;;;;5081681;28;20195;-76
2021/03/31 03:35:19;;;;;;;10.68;5.90;;;;;13.80;102170.00;;;;5085202;28;20194;-76
2021/03/31 03:37:49;;;;;;;11.00;6.30;;;;;13.80;102169.00;;;;5088875;28;20198;-76
2021/03/31 03:40:18;;;;;;;10.43;6.00;;;;;13.80;102167.00;;;;5089856;28;20559;-76
2021/03/31 03:42:44;;;;;;;9.82;6.53;;;;;13.80;102164.00;;;;5069627;28;20196;-76
2021/03/31 03:45:12;;;;;;;10.65;6.13;;;;;13.70;102162.00;;;;5069919;28;20195;-76
2021/03/31 03:47:40;;;;;;;11.90;6.68;;;;;13.70;102165.00;;;;5084847;28;20222;-76
2021/03/31 03:50:09;;;;;;;14.05;6.85;;;;;13.70;102164.00;;;;5090653;28;20222;-76
2021/03/31 03:52:37;;;;;;;12.57;6.70;;;;;13.70;102158.00;;;;5089382;28;20221;-76
2021/03/31 03:55:06;;;;;;;11.52;6.68;;;;;13.60;102164.00;;;;5088679;28;20202;-76
2021/03/31 03:57:33;;;;;;;9.00;5.57;;;;;13.60;102162.00;;;;5089357;28;20614;-76
2021/03/31 04:00:00;;;;;;;10.63;5.82;;;;;13.60;102164.00;;;;5090022;28;20194;-76
2021/03/31 04:02:26;;;;;;;10.73;5.63;;;;;13.60;102164.00;;;;5084211;28;20198;-76
2021/03/31 04:04:53;;;;;;;10.82;5.95;;;;;13.60;102164.00;;;;5088313;28;20205;-76
2021/03/31 04:07:20;;;;;;;12.32;7.10;;;;;13.60;102155.00;;;;5089763;28;20213;-76
2021/03/31 04:09:48;;;;;;;10.98;5.97;;;;;13.50;102148.00;;;;5088778;28;20338;-76
2021/03/31 04:12:17;;;;;;;11.75;5.43;;;;;13.50;102145.00;;;;5089045;28;20243;-77
2021/03/31 04:14:45;;;;;;;11.98;6.32;;;;;13.50;102143.00;;;;5088402;28;20205;-76
2021/03/31 04:17:16;;;;;;;10.25;5.88;;;;;13.50;102144.00;;;;5087988;28;20193;-76
2021/03/31 04:19:46;;;;;;;11.68;6.47;;;;;13.50;102143.00;;;;5088933;28;20202;-76
2021/03/31 04:22:13;;;;;;;11.50;6.15;;;;;13.50;102143.00;;;;5089918;28;20198;-77
2021/03/31 04:24:40;;;;;;;11.57;6.05;;;;;13.40;102138.00;;;;5076951;28;20568;-76
2021/03/31 04:27:09;;;;;;;12.23;6.57;;;;;13.40;102138.00;;;;5079378;28;20237;-76
2021/03/31 04:29:39;;;;;;;12.45;6.95;;;;;13.40;102130.00;;;;5073535;28;20249;-76
2021/03/31 04:32:08;;;;;;;10.20;5.88;;;;;13.40;102130.00;;;;5085422;28;20195;-76
2021/03/31 04:34:34;;;;;;;8.80;5.50;;;;;13.40;102138.00;;;;5080028;28;20194;-76
2021/03/31 04:37:01;;;;;;;12.10;6.78;;;;;13.40;102143.00;;;;5083473;28;20670;-77
2021/03/31 04:39:28;;;;;;;11.82;6.47;;;;;13.40;102142.00;;;;5089093;28;20202;-76
2021/03/31 04:41:55;;;;;;;10.25;6.53;;;;;13.40;102145.00;;;;5086969;28;20209;-76
2021/03/31 04:44:22;;;;;;;12.50;6.20;;;;;13.40;102145.00;;;;5088518;28;20275;-76
2021/03/31 04:46:49;;;;;;;13.25;7.35;;;;;13.30;102136.00;;;;5087243;28;20202;-76
2021/03/31 04:49:16;;;;;;;14.82;7.10;;;;;13.30;102141.00;;;;5088584;28;20226;-76
2021/03/31 04:51:43;;;;;;;11.20;6.95;;;;;13.30;102138.00;;;;5076546;28;20211;-76
2021/03/31 04:54:09;;;;;;;12.15;7.50;;;;;13.30;102147.00;;;;5081928;28;20546;-76
2021/03/31 04:56:36;;;;;;;13.35;7.28;;;;;13.30;102134.00;;;;5088373;28;20194;-76
2021/03/31 04:59:03;;;;;;;11.02;7.32;;;;;13.30;102125.00;;;;5087253;28;20603;-76
2021/03/31 05:01:30;;;;;;;14.30;7.10;;;;;13.30;102137.00;;;;5086581;28;20198;-76
2021/03/31 05:03:57;;;;;;;12.90;7.53;;;;;13.20;102134.00;;;;5087339;28;20583;-76
2021/03/31 05:06:24;;;;;;;11.85;6.95;;;;;13.20;102138.00;;;;5085960;28;20553;-76
2021/03/31 05:08:51;;;;;;;12.00;7.07;;;;;13.20;102127.00;;;;5082282;28;20229;-76
2021/03/31 05:11:17;;;;;;;12.70;7.68;;;;;13.20;102130.00;;;;5075445;28;20194;-76
2021/03/31 05:13:44;;;;;;;12.40;6.57;;;;;13.20;102133.00;;;;5080938;28;20705;-77
2021/03/31 05:16:11;;;;;;;12.82;7.60;;;;;13.20;102130.00;;;;5076785;28;20190;-77
2021/03/31 05:18:38;;;;;;;12.55;6.63;;;;;13.10;102127.00;;;;5076378;28;20217;-76
2021/03/31 05:21:06;;;;;;;13.32;6.80;;;;;13.10;102127.00;;;;5079919;28;20186;-76
2021/03/31 05:23:32;;;;;;;11.80;6.80;;;;;13.10;102129.00;;;;5081514;28;20213;-77
2021/03/31 05:25:59;;;;;;;14.65;7.55;;;;;13.10;102127.00;;;;5076748;28;20213;-76
2021/03/31 05:28:26;;;;;;;14.13;7.97;;;;;13.10;102126.00;;;;5079628;28;20203;-76
2021/03/31 05:30:53;;;;;;;16.08;7.55;;;;;13.10;102117.00;;;;5079150;28;20221;-76
2021/03/31 05:33:19;;;;;;;19.73;7.05;;;;;13.10;102118.00;;;;5079230;28;20668;-75
2021/03/31 05:35:46;;;;;;;13.45;6.57;;;;;13.10;102119.00;;;;5084863;28;20216;-76
2021/03/31 05:38:14;;;;;;;14.90;7.40;;;;;13.10;102116.00;;;;5086590;28;20201;-76
2021/03/31 05:40:41;;;;;;;15.40;7.85;;;;;13.10;102116.00;;;;5080582;28;20672;-76
2021/03/31 05:43:08;;;;;;;12.73;7.22;;;;;13.10;102114.00;;;;5078104;28;20688;-75
2021/03/31 05:45:35;;;;;;;16.38;8.10;;;;;13.10;102114.00;;;;5080412;28;20295;-75
2021/03/31 05:48:04;;;;;;;13.43;7.53;;;;;13.10;102106.00;;;;5078783;28;20226;-74
2021/03/31 05:50:31;;;;;;;12.60;7.30;;;;;13.10;102107.00;;;;5074928;28;20226;-76
2021/03/31 05:52:58;;;;;;;13.45;7.82;;;;;13.10;102103.00;;;;5086460;28;20205;-75
2021/03/31 05:55:26;;;;;;;17.15;8.27;;;;;13.10;102106.00;;;;5078713;28;20195;-75
2021/03/31 05:57:53;;;;;;;12.60;7.25;;;;;13.20;102100.00;;;;5076997;28;20198;-76
2021/03/31 06:00:22;;;;;;;15.23;7.97;;;;;13.20;102101.00;;;;5086668;28;20202;-73
2021/03/31 06:02:50;;;;;;;13.52;8.35;;;;;13.20;102098.00;;;;5079307;28;20206;-76
2021/03/31 06:05:18;;;;;;;12.32;7.70;;;;;13.20;102103.00;;;;5081396;28;20201;-73
2021/03/31 06:07:46;;;;;;;14.05;7.55;;;;;13.30;102104.00;;;;5081532;28;20281;-76
2021/03/31 06:10:15;;;;;;;16.00;7.80;;;;;13.30;102102.00;;;;5091464;28;20328;-74
2021/03/31 06:12:46;;;;;;;11.63;7.97;;;;;13.30;102109.00;;;;5091163;28;20477;-74
2021/03/31 06:15:24;;;;;;;12.10;7.05;;;;;13.30;102106.00;;;;5082618;28;20199;-74
2021/03/31 06:17:53;;;;;;;13.07;7.32;;;;;13.40;102108.00;;;;5089791;28;20202;-75
2021/03/31 06:20:44;;;;;;;14.98;8.32;;;;;13.40;102106.00;;;;5091609;28;20574;-74
2021/03/31 06:23:17;;;;;;;14.00;7.43;;;;;13.60;102111.00;;;;5076562;28;20537;-75
2021/03/31 06:25:49;;;;;;;13.23;7.45;;;;;13.60;102117.00;;;;5090821;28;20193;-75
2021/03/31 06:28:33;;;;;;;14.52;8.73;;;;;13.60;102113.00;;;;5085075;28;21255;-75
2021/03/31 06:31:07;;;;;;;14.18;8.60;;;;;13.80;102113.00;;;;5082458;28;20218;-76
2021/03/31 06:33:35;;;;;;;14.38;7.75;;;;;13.90;102109.00;;;;5089986;28;20197;-75
2021/03/31 06:36:01;;;;;;;14.57;9.02;;;;;13.90;102110.00;;;;5091009;28;20206;-75
2021/03/31 06:38:33;;;;;;;17.00;10.43;;;;;14.00;102106.00;;;;5090924;28;20202;-75
2021/03/31 06:41:12;;;;;;;15.30;9.25;;;;;14.00;102107.00;;;;5088255;28;20194;-75
2021/03/31 06:43:47;;;;;;;15.60;9.50;;;;;14.20;102105.00;;;;5089526;28;20241;-75
2021/03/31 06:46:25;;;;;;;15.13;9.10;;;;;14.30;102106.00;;;;5091583;28;20230;-75
2021/03/31 06:48:53;;;;;;;19.08;9.63;;;;;14.40;102107.00;;;;5089925;28;20237;-75
2021/03/31 06:51:27;;;;;;;16.70;9.02;;;;;14.40;102108.00;;;;5085371;28;20202;-75
2021/03/31 06:53:54;;;;;;;17.05;9.90;;;;;14.50;102112.00;;;;5085906;28;20644;-76
2021/03/31 06:56:29;;;;;;;16.80;9.95;;;;;14.60;102107.00;;;;5090525;28;20206;-75
2021/03/31 06:59:01;;;;;;;12.57;9.32;;;;;14.70;102110.00;;;;5090729;28;20215;-75
2021/03/31 07:01:31;;;;;;;18.10;10.40;;;;;14.80;102111.00;;;;5089513;28;20559;-76
2021/03/31 07:04:01;;;;;;;16.60;10.07;;;;;14.90;102115.00;;;;5090337;28;20210;-75
2021/03/31 07:06:27;;;;;;;17.65;10.15;;;;;15.00;102114.00;;;;5074801;28;20206;-75
2021/03/31 07:08:54;;;;;;;18.95;10.60;;;;;15.10;102108.00;;;;5088805;28;20205;-75
2021/03/31 07:11:41;;;;;;;17.23;10.70;;;;;15.10;102113.00;;;;5078187;28;20199;-74
2021/03/31 07:14:10;;;;;;;26.70;11.52;;;;;15.30;102109.00;;;;5082769;28;20578;-75
2021/03/31 07:16:38;;;;;;;17.52;12.10;;;;;15.40;102113.00;;;;5088679;28;20277;-75
2021/03/31 07:19:08;;;;;;;25.63;11.57;;;;;15.50;102107.00;;;;5088940;28;20229;-77
2021/03/31 07:21:35;;;;;;;17.88;9.68;;;;;15.60;102105.00;;;;5089543;28;20224;-77
2021/03/31 07:24:02;;;;;;;18.90;11.65;;;;;15.70;102108.00;;;;5085115;28;20194;-76
2021/03/31 07:26:30;;;;;;;17.13;10.40;;;;;15.90;102110.00;;;;5082944;28;20202;-77
2021/03/31 07:28:58;;;;;;;17.60;11.00;;;;;15.90;102100.00;;;;5088935;28;20221;-77
2021/03/31 07:31:28;;;;;;;19.77;11.38;;;;;16.10;102104.00;;;;5090021;28;20198;-77
2021/03/31 07:34:12;;;;;;;18.10;11.02;;;;;16.10;102110.00;;;;5089247;28;20225;-77
2021/03/31 07:36:42;;;;;;;16.42;11.27;;;;;16.30;102099.00;;;;5088368;28;20225;-78
2021/03/31 07:39:10;;;;;;;18.65;11.27;;;;;16.40;102106.00;;;;5087969;28;20210;-78
2021/03/31 07:41:38;;;;;;;18.17;10.95;;;;;16.50;102101.00;;;;5080789;28;20199;-78
2021/03/31 07:44:08;;;;;;;22.42;11.77;;;;;16.60;102100.00;;;;5078894;28;20221;-79
2021/03/31 07:46:39;;;;;;;20.38;12.23;;;;;16.70;102102.00;;;;5087898;28;20198;-77
2021/03/31 07:49:07;;;;;;;14.93;10.68;;;;;16.80;102106.00;;;;5085577;28;20222;-77
2021/03/31 07:51:34;;;;;;;16.25;10.70;;;;;17.00;102105.00;;;;5088080;28;20187;-77
2021/03/31 07:54:02;;;;;;;16.50;11.35;;;;;17.10;102104.00;;;;5088325;28;20301;-77
2021/03/31 07:56:39;;;;;;;17.48;11.35;;;;;17.20;102106.00;;;;5082772;28;20579;-77
2021/03/31 07:59:11;;;;;;;19.85;11.63;;;;;17.30;102099.00;;;;5082836;28;20193;-77
2021/03/31 08:01:41;;;;;;;18.63;11.40;;;;;17.40;102100.00;;;;5088444;28;20376;-78
2021/03/31 08:04:10;;;;;;;16.67;9.95;;;;;17.50;102103.00;;;;5088550;28;20198;-78
2021/03/31 08:06:37;;;;;;;16.52;11.30;;;;;17.70;102108.00;;;;5086310;28;20198;-78
2021/03/31 08:09:07;;;;;;;17.02;11.05;;;;;17.80;102108.00;;;;5088494;28;20198;-76
2021/03/31 08:12:06;;;;;;;18.70;12.00;;;;;17.80;102101.00;;;;5088978;28;20190;-78
2021/03/31 08:14:46;;;;;;;16.73;10.45;;;;;18.00;102098.00;;;;5089858;28;20535;-77
2021/03/31 08:17:17;;;;;;;15.88;10.40;;;;;18.10;102101.00;;;;5074528;28;20201;-78
2021/03/31 08:19:48;;;;;;;15.95;11.65;;;;;18.30;102103.00;;;;5084269;28;20628;-79
2021/03/31 08:22:34;;;;;;;19.05;10.82;;;;;18.40;102112.00;;;;5081548;28;20193;-78
2021/03/31 08:25:19;;;;;;;18.55;11.95;;;;;18.50;102113.00;;;;5078250;28;20195;-76
2021/03/31 08:27:57;;;;;;;17.75;11.75;;;;;18.60;102125.00;;;;5081302;28;20704;-77
2021/03/31 08:30:24;;;;;;;21.52;12.35;;;;;18.80;102115.00;;;;5081820;28;20645;-76
2021/03/31 08:32:53;;;;;;;15.15;11.93;;;;;18.90;102117.00;;;;5085503;28;20194;-76
2021/03/31 08:35:21;;;;;;;15.63;11.23;;;;;19.10;102118.00;;;;5088895;28;20198;-76
2021/03/31 08:37:49;;;;;;;18.45;11.80;;;;;19.20;102112.00;;;;5087871;28;20568;-76
2021/03/31 08:40:17;;;;;;;22.05;13.85;;;;;19.30;102117.00;;;;5088087;28;20232;-76
2021/03/31 08:42:49;;;;;;;15.98;11.75;;;;;19.40;102114.00;;;;5087811;28;20668;-76
2021/03/31 08:45:32;;;;;;;19.65;12.05;;;;;19.50;102115.00;;;;5088105;28;20190;-76
2021/03/31 08:48:00;;;;;;;18.20;11.77;;;;;19.80;102111.00;;;;5086851;28;20233;-76
2021/03/31 08:50:30;;;;;;;19.40;11.82;;;;;19.90;102112.00;;;;5087342;28;20236;-76
2021/03/31 08:53:03;;;;;;;17.70;11.95;;;;;20.00;102109.00;;;;5086903;28;20202;-76
2021/03/31 08:55:32;;;;;;;20.23;12.95;;;;;20.20;102105.00;;;;5080384;28;20664;-76
2021/03/31 08:57:59;;;;;;;16.75;11.93;;;;;20.30;102103.00;;;;5086262;28;20207;-76
2021/03/31 09:00:26;;;;;;;16.23;11.93;;;;;20.50;102099.00;;;;5088509;28;20558;-76
2021/03/31 09:03:03;;;;;;;22.23;13.48;;;;;20.60;102103.00;;;;5088307;28;20563;-76
2021/03/31 09:05:30;;;;;;;17.67;12.57;;;;;20.80;102096.00;;;;5088266;28;20204;-76
2021/03/31 09:08:01;;;;;;;18.73;13.10;;;;;20.90;102094.00;;;;5087280;28;20199;-76
2021/03/31 09:10:28;;;;;;;16.83;12.40;;;;;21.10;102096.00;;;;5088016;28;20222;-76
2021/03/31 09:12:55;;;;;;;19.88;11.90;;;;;21.20;102093.00;;;;5088559;28;20194;-76
2021/03/31 09:15:22;;;;;;;19.33;13.10;;;;;21.40;102081.00;;;;5086370;28;20233;-77
2021/03/31 09:17:55;;;;;;;19.48;12.45;;;;;21.50;102086.00;;;;5082528;28;20249;-76
2021/03/31 09:20:23;;;;;;;18.33;12.88;;;;;21.70;102092.00;;;;5084763;28;20247;-77
2021/03/31 09:22:50;;;;;;;21.40;12.95;;;;;21.80;102090.00;;;;5087787;28;20202;-78
2021/03/31 09:25:19;;;;;;;21.45;13.20;;;;;22.00;102089.00;;;;5087452;28;20198;-77
2021/03/31 09:27:46;;;;;;;19.00;12.77;;;;;22.10;102088.00;;;;5087451;28;20224;-77
2021/03/31 09:30:16;;;;;;;20.23;13.38;;;;;22.30;102085.00;;;;5089957;28;20222;-77
2021/03/31 09:32:47;;;;;;;21.60;12.35;;;;;22.40;102085.00;;;;5077562;28;20194;-77
2021/03/31 09:35:16;;;;;;;18.38;12.95;;;;;22.60;102083.00;;;;5089949;28;21223;-77
2021/03/31 09:37:45;;;;;;;22.10;14.65;;;;;22.70;102097.00;;;;5087622;28;20198;-77
2021/03/31 09:40:19;;;;;;;21.55;14.45;;;;;22.80;102090.00;;;;5089571;28;20202;-77
2021/03/31 09:42:47;;;;;;;20.98;14.63;;;;;23.00;102083.00;;;;5090280;28;20198;-77
2021/03/31 09:45:15;;;;;;;16.85;13.02;;;;;23.10;102084.00;;;;5087463;28;20194;-78
2021/03/31 09:47:42;;;;;;;19.58;13.65;;;;;23.30;102086.00;;;;5074453;28;20273;-77
2021/03/31 09:50:12;;;;;;;20.08;13.82;;;;;23.40;102080.00;;;;5072507;28;20349;-78
2021/03/31 09:52:39;;;;;;;18.52;13.20;;;;;23.60;102070.00;;;;5087139;28;20201;-77
2021/03/31 09:55:10;;;;;;;24.35;15.10;;;;;23.70;102072.00;;;;5088512;28;20347;-77
2021/03/31 09:57:38;;;;;;;24.13;14.23;;;;;23.90;102074.00;;;;5080605;28;20202;-77
2021/03/31 10:00:08;;;;;;;23.50;13.88;;;;;24.00;102071.00;;;;5077379;28;20191;-77
2021/03/31 10:02:35;;;;;;;18.67;13.27;;;;;24.10;102062.00;;;;5092099;28;20187;-78
2021/03/31 10:05:03;;;;;;;21.77;13.25;;;;;24.30;102059.00;;;;5087791;28;20197;-75
2021/03/31 10:07:29;;;;;;;19.67;13.20;;;;;24.40;102062.00;;;;5076801;28;20281;-76
2021/03/31 10:09:56;;;;;;;19.17;14.23;;;;;24.50;102061.00;;;;5083003;28;20233;-76
2021/03/31 10:12:27;;;;;;;20.48;14.15;;;;;24.70;102047.00;;;;5079920;28;20213;-77
2021/03/31 10:14:55;;;;;;;20.25;14.18;;;;;24.80;102049.00;;;;5083039;28;20202;-77
2021/03/31 10:17:24;;;;;;;24.73;14.63;;;;;24.90;102049.00;;;;5081565;28;20198;-77
2021/03/31 10:19:51;;;;;;;18.95;13.38;;;;;25.10;102052.00;;;;5079288;28;20191;-76
2021/03/31 10:22:19;;;;;;;19.67;13.20;;;;;25.20;102053.00;;;;5078617;28;20444;-75
2021/03/31 10:24:48;;;;;;;20.15;13.00;;;;;25.40;102053.00;;;;5076461;28;20199;-74
2021/03/31 10:27:17;;;;;;;22.52;13.50;;;;;25.50;102050.00;;;;5087366;28;20202;-75
2021/03/31 10:29:50;;;;;;;21.15;13.05;;;;;25.60;102052.00;;;;5087255;28;20287;-75
2021/03/31 10:32:18;;;;;;;18.13;12.70;;;;;25.70;102054.00;;;;5086321;28;20202;-75
2021/03/31 10:34:47;;;;;;;18.70;13.02;;;;;25.90;102051.00;;;;5082277;28;20211;-75
2021/03/31 10:37:21;;;;;;;19.67;14.10;;;;;26.00;102041.00;;;;5086998;28;20198;-75
2021/03/31 10:48:36;;;;;;;19.13;14.05;;;;;26.50;102040.00;;;;5071822;28;20304;-75
2021/03/31 10:51:10;;;;;;;18.98;13.27;;;;;26.60;102040.00;;;;5076133;28;20305;-75
2021/03/31 10:53:40;;;;;;;17.17;12.05;;;;;26.80;102039.00;;;;5089531;28;20194;-75
2021/03/31 10:56:07;;;;;;;20.55;14.13;;;;;26.90;102045.00;;;;5078122;28;20203;-75
2021/03/31 10:58:34;;;;;;;20.52;13.77;;;;;27.00;102046.00;;;;5086536;28;20191;-75
2021/03/31 11:01:02;;;;;;;22.58;13.60;;;;;27.10;102039.00;;;;5090555;28;20236;-75
2021/03/31 11:03:28;;;;;;;18.02;12.60;;;;;27.20;102042.00;;;;5090960;28;20320;-74
2021/03/31 11:05:55;;;;;;;19.60;12.00;;;;;27.30;102046.00;;;;5089847;28;20203;-75
2021/03/31 11:08:23;;;;;;;23.42;12.82;;;;;27.40;102046.00;;;;5089555;28;20203;-74
2021/03/31 11:10:50;;;;;;;24.30;12.40;;;;;27.50;102041.00;;;;5089470;28;20275;-74
2021/03/31 11:13:17;;;;;;;17.50;12.30;;;;;27.60;102036.00;;;;5076573;28;20198;-74
2021/03/31 11:15:44;;;;;;;17.65;11.75;;;;;27.70;102038.00;;;;5090317;28;20289;-74
2021/03/31 11:18:19;;;;;;;19.58;13.32;;;;;27.70;102044.00;;;;5089203;28;20291;-74
2021/03/31 11:21:12;;;;;;;18.35;12.55;;;;;27.80;102030.00;;;;5087673;28;20272;-75
2021/03/31 11:26:24;;;;;;;20.90;12.40;;;;;28.00;102032.00;;;;5086074;28;20235;-75
2021/03/31 11:28:50;;;;;;;19.88;13.10;;;;;28.10;102033.00;;;;5089832;28;20212;-74
2021/03/31 11:31:17;;;;;;;21.92;12.32;;;;;28.20;102027.00;;;;5084133;28;20218;-74
2021/03/31 11:33:45;;;;;;;21.33;13.02;;;;;28.20;102027.00;;;;5089366;28;20191;-75
2021/03/31 11:36:12;;;;;;;18.88;12.07;;;;;28.30;102028.00;;;;5090199;28;20203;-76
2021/03/31 11:38:39;;;;;;;19.30;11.57;;;;;28.40;102029.00;;;;5083715;28;20199;-75
2021/03/31 11:41:07;;;;;;;16.90;10.85;;;;;28.50;102022.00;;;;5077569;28;20209;-75
2021/03/31 11:43:34;;;;;;;16.60;11.25;;;;;28.50;102019.00;;;;5087818;28;20726;-76
2021/03/31 11:46:01;;;;;;;16.83;10.80;;;;;28.60;102018.00;;;;5071178;28;20348;-77
2021/03/31 11:48:28;;;;;;;22.63;11.88;;;;;28.60;102010.00;;;;5076403;28;20226;-75
2021/03/31 11:50:55;;;;;;;21.60;11.05;;;;;28.70;102000.00;;;;5086565;28;20234;-76
2021/03/31 11:53:28;;;;;;;19.75;11.95;;;;;28.70;102006.00;;;;5087996;28;20198;-75
2021/03/31 11:55:55;;;;;;;18.73;11.90;;;;;28.80;102005.00;;;;5077360;28;20202;-74
2021/03/31 11:58:22;;;;;;;19.90;11.43;;;;;28.80;102008.00;;;;5088560;28;20202;-75
2021/03/31 12:00:49;;;;;;;19.17;11.32;;;;;28.90;102003.00;;;;5083576;28;20199;-75
2021/03/31 12:03:18;;;;;;;18.63;10.75;;;;;28.90;102003.00;;;;5089983;28;20278;-73
2021/03/31 12:05:44;;;;;;;19.55;11.85;;;;;29.00;102002.00;;;;5085876;28;20203;-75
2021/03/31 12:08:12;;;;;;;21.55;12.32;;;;;29.00;102004.00;;;;5080855;28;20610;-75
2021/03/31 12:10:39;;;;;;;19.10;12.15;;;;;29.10;102004.00;;;;5088050;28;20226;-75
2021/03/31 12:13:05;;;;;;;18.40;11.50;;;;;29.10;102007.00;;;;5088701;28;20292;-75
2021/03/31 12:15:32;;;;;;;19.17;11.13;;;;;29.10;101992.00;;;;5084729;28;20194;-75
2021/03/31 12:17:59;;;;;;;26.23;11.43;;;;;29.20;102001.00;;;;5084090;28;20210;-75